Terminal Aerodrome Forecast
Issued by NWS

Home | Current Version | Previous Version | Text Only | Print | Product List | Glossary On
Versions: 1 2 3 4 5 6 7 8 9 10 11 12 13 14 15 16 17 18 19 20 21 22 23 24 25 26 27 28 29 30 31 32 33 34 35 36
583
FTUS46 KOTX 052331
TAFCOE
TAF
KCOE 052331Z 0600/0624 16008KT P6SM BKN070 OVC100
     FM060700 19008KT 6SM -RA BKN025 OVC035 WS015/23040KT
     FM060900 23022G34KT P6SM -SHRASN BKN028 OVC040
     FM061500 24014G25KT P6SM VCSH SCT040 BKN080
     FM062200 23012KT P6SM SCT070 BKN100
      AMD LTD TO CLD AND VIS=

USA.gov is the U.S. government's official web portal to all federal, state and local government web resources and services.